sensor_id;sensor_type;location;lat;lon;timestamp;pressure;altitude;pressure_sealevel;temperature;humidity
50933;BME280;36921;49.006;9.292;2024-01-06T00:01:40;97667.84;;;3.00;100.00
50933;BME280;36921;49.006;9.292;2024-01-06T00:04:06;97673.03;;;3.17;100.00
50933;BME280;36921;49.006;9.292;2024-01-06T00:06:32;97666.28;;;3.06;100.00
50933;BME280;36921;49.006;9.292;2024-01-06T00:08:57;97659.56;;;3.10;100.00
50933;BME280;36921;49.006;9.292;2024-01-06T00:11:23;97675.69;;;3.17;100.00
50933;BME280;36921;49.006;9.292;2024-01-06T00:13:48;97676.53;;;3.17;100.00
50933;BME280;36921;49.006;9.292;2024-01-06T00:16:17;97670.53;;;3.15;100.00
50933;BME280;36921;49.006;9.292;2024-01-06T00:18:44;97678.19;;;3.18;100.00
50933;BME280;36921;49.006;9.292;2024-01-06T00:21:09;97671.63;;;3.06;100.00
50933;BME280;36921;49.006;9.292;2024-01-06T00:23:35;97682.31;;;3.06;100.00
50933;BME280;36921;49.006;9.292;2024-01-06T00:26:00;97675.41;;;2.97;100.00
50933;BME280;36921;49.006;9.292;2024-01-06T00:28:25;97678.47;;;2.94;100.00
50933;BME280;36921;49.006;9.292;2024-01-06T00:30:51;97671.66;;;2.91;100.00
50933;BME280;36921;49.006;9.292;2024-01-06T00:33:16;97684.16;;;2.91;100.00
50933;BME280;36921;49.006;9.292;2024-01-06T00:35:42;97682.13;;;2.93;100.00
50933;BME280;36921;49.006;9.292;2024-01-06T00:38:07;97680.56;;;2.98;100.00
50933;BME280;36921;49.006;9.292;2024-01-06T00:40:33;97681.50;;;3.05;100.00
50933;BME280;36921;49.006;9.292;2024-01-06T00:42:58;97692.28;;;3.12;100.00
50933;BME280;36921;49.006;9.292;2024-01-06T00:45:24;97694.13;;;3.26;100.00
50933;BME280;36921;49.006;9.292;2024-01-06T00:47:50;97700.03;;;3.37;100.00
50933;BME280;36921;49.006;9.292;2024-01-06T00:50:16;97690.66;;;3.41;100.00
50933;BME280;36921;49.006;9.292;2024-01-06T00:52:43;97689.34;;;3.37;100.00
50933;BME280;36921;49.006;9.292;2024-01-06T00:55:09;97688.97;;;3.40;100.00
50933;BME280;36921;49.006;9.292;2024-01-06T00:57:34;97693.13;;;3.42;100.00
50933;BME280;36921;49.006;9.292;2024-01-06T01:00:00;97701.34;;;3.41;100.00
50933;BME280;36921;49.006;9.292;2024-01-06T01:02:25;97704.84;;;3.41;100.00
50933;BME280;36921;49.006;9.292;2024-01-06T01:04:50;97705.50;;;3.43;100.00
50933;BME280;36921;49.006;9.292;2024-01-06T01:07:17;97715.31;;;3.43;100.00
50933;BME280;36921;49.006;9.292;2024-01-06T01:09:43;97725.47;;;3.47;100.00
50933;BME280;36921;49.006;9.292;2024-01-06T01:12:08;97727.16;;;3.48;100.00
50933;BME280;36921;49.006;9.292;2024-01-06T01:14:34;97724.00;;;3.45;100.00
50933;BME280;36921;49.006;9.292;2024-01-06T01:16:59;97737.66;;;3.50;100.00
50933;BME280;36921;49.006;9.292;2024-01-06T01:19:25;97727.78;;;3.50;100.00
50933;BME280;36921;49.006;9.292;2024-01-06T01:21:50;97733.59;;;3.54;100.00
50933;BME280;36921;49.006;9.292;2024-01-06T01:24:21;97746.13;;;3.54;100.00
50933;BME280;36921;49.006;9.292;2024-01-06T01:26:47;97740.59;;;3.55;100.00
50933;BME280;36921;49.006;9.292;2024-01-06T01:29:12;97750.47;;;3.55;100.00
50933;BME280;36921;49.006;9.292;2024-01-06T01:31:37;97748.34;;;3.65;100.00
50933;BME280;36921;49.006;9.292;2024-01-06T01:34:03;97752.13;;;3.70;100.00
50933;BME280;36921;49.006;9.292;2024-01-06T01:36:28;97730.72;;;3.70;100.00
50933;BME280;36921;49.006;9.292;2024-01-06T01:38:54;97747.06;;;3.76;100.00
50933;BME280;36921;49.006;9.292;2024-01-06T01:41:19;97747.97;;;3.83;100.00
50933;BME280;36921;49.006;9.292;2024-01-06T01:43:45;97744.66;;;3.81;100.00
50933;BME280;36921;49.006;9.292;2024-01-06T01:46:11;97748.97;;;3.82;100.00
50933;BME280;36921;49.006;9.292;2024-01-06T01:48:37;97753.88;;;3.78;100.00
50933;BME280;36921;49.006;9.292;2024-01-06T01:51:03;97749.25;;;3.72;100.00
50933;BME280;36921;49.006;9.292;2024-01-06T01:53:29;97751.47;;;3.68;100.00
50933;BME280;36921;49.006;9.292;2024-01-06T01:55:55;97742.63;;;3.53;100.00
50933;BME280;36921;49.006;9.292;2024-01-06T01:58:21;97742.44;;;3.40;100.00
50933;BME280;36921;49.006;9.292;2024-01-06T02:00:48;97745.31;;;3.38;100.00
50933;BME280;36921;49.006;9.292;2024-01-06T02:03:13;97747.69;;;3.33;100.00
50933;BME280;36921;49.006;9.292;2024-01-06T02:05:40;97749.19;;;3.36;100.00
50933;BME280;36921;49.006;9.292;2024-01-06T02:08:05;97746.50;;;3.36;100.00
50933;BME280;36921;49.006;9.292;2024-01-06T02:10:34;97758.69;;;3.38;100.00
50933;BME280;36921;49.006;9.292;2024-01-06T02:13:10;97761.81;;;3.42;100.00
50933;BME280;36921;49.006;9.292;2024-01-06T02:15:36;97755.63;;;3.41;100.00
50933;BME280;36921;49.006;9.292;2024-01-06T02:18:02;97764.09;;;3.45;100.00
50933;BME280;36921;49.006;9.292;2024-01-06T02:20:30;97751.84;;;3.36;100.00
50933;BME280;36921;49.006;9.292;2024-01-06T02:22:56;97758.09;;;3.43;100.00
50933;BME280;36921;49.006;9.292;2024-01-06T02:25:23;97764.47;;;3.42;100.00
50933;BME280;36921;49.006;9.292;2024-01-06T02:27:48;97761.81;;;3.42;100.00
50933;BME280;36921;49.006;9.292;2024-01-06T02:30:14;97768.81;;;3.43;100.00
50933;BME280;36921;49.006;9.292;2024-01-06T02:32:39;97767.97;;;3.42;100.00
50933;BME280;36921;49.006;9.292;2024-01-06T02:35:05;97770.19;;;3.39;100.00
50933;BME280;36921;49.006;9.292;2024-01-06T02:37:30;97772.03;;;3.38;100.00
50933;BME280;36921;49.006;9.292;2024-01-06T02:39:56;97785.88;;;3.42;100.00
50933;BME280;36921;49.006;9.292;2024-01-06T02:42:21;97787.22;;;3.38;100.00
50933;BME280;36921;49.006;9.292;2024-01-06T02:44:47;97793.25;;;3.40;100.00
50933;BME280;36921;49.006;9.292;2024-01-06T02:47:12;97793.25;;;3.40;100.00
50933;BME280;36921;49.006;9.292;2024-01-06T02:49:38;97786.25;;;3.39;100.00
50933;BME280;36921;49.006;9.292;2024-01-06T02:52:03;97783.19;;;3.42;100.00
50933;BME280;36921;49.006;9.292;2024-01-06T02:54:29;97786.69;;;3.42;100.00
50933;BME280;36921;49.006;9.292;2024-01-06T02:56:55;97788.38;;;3.43;100.00
50933;BME280;36921;49.006;9.292;2024-01-06T02:59:20;97790.84;;;3.45;100.00
50933;BME280;36921;49.006;9.292;2024-01-06T03:01:45;97778.13;;;3.47;100.00
50933;BME280;36921;49.006;9.292;2024-01-06T03:04:11;97778.94;;;3.47;100.00
50933;BME280;36921;49.006;9.292;2024-01-06T03:06:36;97790.19;;;3.43;100.00
50933;BME280;36921;49.006;9.292;2024-01-06T03:09:02;97786.31;;;3.45;100.00
50933;BME280;36921;49.006;9.292;2024-01-06T03:11:27;97786.22;;;3.54;100.00
50933;BME280;36921;49.006;9.292;2024-01-06T03:13:54;97792.88;;;3.58;100.00
50933;BME280;36921;49.006;9.292;2024-01-06T03:16:19;97794.53;;;3.59;100.00
50933;BME280;36921;49.006;9.292;2024-01-06T03:18:45;97790.50;;;3.63;100.00
50933;BME280;36921;49.006;9.292;2024-01-06T03:21:19;97798.53;;;3.63;100.00
50933;BME280;36921;49.006;9.292;2024-01-06T03:23:46;97788.84;;;3.62;100.00
50933;BME280;36921;49.006;9.292;2024-01-06T03:26:14;97792.88;;;3.58;100.00
50933;BME280;36921;49.006;9.292;2024-01-06T03:28:40;97790.09;;;3.51;100.00
50933;BME280;36921;49.006;9.292;2024-01-06T03:31:06;97779.34;;;3.59;100.00
50933;BME280;36921;49.006;9.292;2024-01-06T03:33:32;97779.41;;;3.51;100.00
50933;BME280;36921;49.006;9.292;2024-01-06T03:35:58;97774.63;;;3.46;100.00
50933;BME280;36921;49.006;9.292;2024-01-06T03:38:23;97795.19;;;3.46;100.00
50933;BME280;36921;49.006;9.292;2024-01-06T03:40:48;97789.84;;;3.46;100.00
50933;BME280;36921;49.006;9.292;2024-01-06T03:43:14;97789.00;;;3.45;100.00
50933;BME280;36921;49.006;9.292;2024-01-06T03:45:39;97788.78;;;3.32;100.00
50933;BME280;36921;49.006;9.292;2024-01-06T03:48:05;97796.81;;;3.32;100.00
50933;BME280;36921;49.006;9.292;2024-01-06T03:50:31;97793.69;;;3.28;100.00
50933;BME280;36921;49.006;9.292;2024-01-06T03:52:56;97795.72;;;3.26;100.00
50933;BME280;36921;49.006;9.292;2024-01-06T03:55:22;97787.03;;;3.24;100.00
50933;BME280;36921;49.006;9.292;2024-01-06T03:57:47;97792.38;;;3.24;100.00
50933;BME280;36921;49.006;9.292;2024-01-06T04:00:13;97792.66;;;3.29;100.00
50933;BME280;36921;49.006;9.292;2024-01-06T04:02:38;97792.28;;;3.33;100.00
50933;BME280;36921;49.006;9.292;2024-01-06T04:05:04;97791.97;;;3.36;100.00
50933;BME280;36921;49.006;9.292;2024-01-06T04:07:30;97799.31;;;3.34;100.00
50933;BME280;36921;49.006;9.292;2024-01-06T04:09:56;97798.66;;;3.32;100.00
50933;BME280;36921;49.006;9.292;2024-01-06T04:12:22;97781.69;;;3.24;100.00
50933;BME280;36921;49.006;9.292;2024-01-06T04:14:48;97797.84;;;3.31;100.00
50933;BME280;36921;49.006;9.292;2024-01-06T04:17:13;97784.03;;;3.27;100.00
50933;BME280;36921;49.006;9.292;2024-01-06T04:19:39;97792.25;;;3.41;100.00
50933;BME280;36921;49.006;9.292;2024-01-06T04:22:05;97793.53;;;3.45;100.00
50933;BME280;36921;49.006;9.292;2024-01-06T04:24:31;97793.53;;;3.45;100.00
50933;BME280;36921;49.006;9.292;2024-01-06T04:26:59;97794.06;;;3.40;100.00
50933;BME280;36921;49.006;9.292;2024-01-06T04:29:25;97809.94;;;3.42;100.00
50933;BME280;36921;49.006;9.292;2024-01-06T04:31:50;97810.31;;;3.39;100.00
50933;BME280;36921;49.006;9.292;2024-01-06T04:34:16;97805.94;;;3.38;100.00
50933;BME280;36921;49.006;9.292;2024-01-06T04:36:42;97808.00;;;3.36;100.00
50933;BME280;36921;49.006;9.292;2024-01-06T04:39:08;97805.78;;;3.39;100.00
50933;BME280;36921;49.006;9.292;2024-01-06T04:41:33;97809.56;;;3.45;100.00
50933;BME280;36921;49.006;9.292;2024-01-06T04:43:59;97809.38;;;3.46;100.00
50933;BME280;36921;49.006;9.292;2024-01-06T04:46:24;97809.31;;;3.55;100.00
50933;BME280;36921;49.006;9.292;2024-01-06T04:48:51;97795.19;;;3.46;100.00
50933;BME280;36921;49.006;9.292;2024-01-06T04:51:16;97805.81;;;3.54;100.00
50933;BME280;36921;49.006;9.292;2024-01-06T04:53:41;97807.00;;;3.51;100.00
50933;BME280;36921;49.006;9.292;2024-01-06T04:56:07;97806.06;;;3.44;100.00
50933;BME280;36921;49.006;9.292;2024-01-06T04:58:32;97811.13;;;3.39;100.00
50933;BME280;36921;49.006;9.292;2024-01-06T05:00:57;97811.66;;;3.35;100.00
50933;BME280;36921;49.006;9.292;2024-01-06T05:03:29;97823.00;;;3.37;100.00
50933;BME280;36921;49.006;9.292;2024-01-06T05:05:54;97822.72;;;3.32;100.00
50933;BME280;36921;49.006;9.292;2024-01-06T05:08:20;97823.09;;;3.28;100.00
50933;BME280;36921;49.006;9.292;2024-01-06T05:10:48;97827.41;;;3.29;100.00
50933;BME280;36921;49.006;9.292;2024-01-06T05:13:13;97830.75;;;3.32;100.00
50933;BME280;36921;49.006;9.292;2024-01-06T05:15:39;97826.22;;;3.32;100.00
50933;BME280;36921;49.006;9.292;2024-01-06T05:18:06;97835.19;;;3.39;100.00
50933;BME280;36921;49.006;9.292;2024-01-06T05:20:31;97832.97;;;3.43;100.00
50933;BME280;36921;49.006;9.292;2024-01-06T05:22:56;97837.97;;;3.46;100.00
50933;BME280;36921;49.006;9.292;2024-01-06T05:25:22;97840.19;;;3.57;100.00
50933;BME280;36921;49.006;9.292;2024-01-06T05:27:48;97834.84;;;3.57;100.00
50933;BME280;36921;49.006;9.292;2024-01-06T05:30:14;97839.09;;;3.66;100.00
50933;BME280;36921;49.006;9.292;2024-01-06T05:32:39;97831.63;;;3.62;100.00
50933;BME280;36921;49.006;9.292;2024-01-06T05:35:05;97841.97;;;3.65;100.00
50933;BME280;36921;49.006;9.292;2024-01-06T05:37:31;97837.81;;;3.62;100.00
50933;BME280;36921;49.006;9.292;2024-01-06T05:39:57;97842.88;;;3.57;100.00
50933;BME280;36921;49.006;9.292;2024-01-06T05:42:26;97845.25;;;3.52;100.00
50933;BME280;36921;49.006;9.292;2024-01-06T05:44:52;97839.63;;;3.47;100.00
50933;BME280;36921;49.006;9.292;2024-01-06T05:47:17;97847.66;;;3.47;100.00
50933;BME280;36921;49.006;9.292;2024-01-06T05:49:43;97843.38;;;3.38;100.00
50933;BME280;36921;49.006;9.292;2024-01-06T05:52:10;97848.09;;;3.36;100.00
50933;BME280;36921;49.006;9.292;2024-01-06T05:54:40;97856.94;;;3.36;100.00
50933;BME280;36921;49.006;9.292;2024-01-06T05:57:06;97855.63;;;3.32;100.00
50933;BME280;36921;49.006;9.292;2024-01-06T05:59:34;97856.19;;;3.27;100.00
50933;BME280;36921;49.006;9.292;2024-01-06T06:02:00;97857.56;;;3.23;100.00
50933;BME280;36921;49.006;9.292;2024-01-06T06:04:27;97850.88;;;3.19;100.00
50933;BME280;36921;49.006;9.292;2024-01-06T06:06:52;97859.41;;;3.23;100.00
50933;BME280;36921;49.006;9.292;2024-01-06T06:09:17;97860.59;;;3.20;100.00
50933;BME280;36921;49.006;9.292;2024-01-06T06:11:43;97864.09;;;3.21;100.00
50933;BME280;36921;49.006;9.292;2024-01-06T06:14:09;97877.00;;;3.17;100.00
50933;BME280;36921;49.006;9.292;2024-01-06T06:16:34;97874.19;;;3.11;100.00
50933;BME280;36921;49.006;9.292;2024-01-06T06:19:00;97892.53;;;3.14;100.00
50933;BME280;36921;49.006;9.292;2024-01-06T06:21:25;97892.53;;;3.14;100.00
50933;BME280;36921;49.006;9.292;2024-01-06T06:23:51;97898.19;;;3.19;100.00
50933;BME280;36921;49.006;9.292;2024-01-06T06:26:16;97896.00;;;3.22;100.00
50933;BME280;36921;49.006;9.292;2024-01-06T06:28:42;97894.44;;;3.28;100.00
50933;BME280;36921;49.006;9.292;2024-01-06T06:31:07;97894.81;;;3.25;100.00
50933;BME280;36921;49.006;9.292;2024-01-06T06:33:33;97886.22;;;3.29;100.00
50933;BME280;36921;49.006;9.292;2024-01-06T06:35:58;97895.72;;;3.32;100.00
50933;BME280;36921;49.006;9.292;2024-01-06T06:38:25;97893.88;;;3.33;100.00
50933;BME280;36921;49.006;9.292;2024-01-06T06:40:51;97899.53;;;3.38;100.00
50933;BME280;36921;49.006;9.292;2024-01-06T06:43:16;97887.63;;;3.40;100.00
50933;BME280;36921;49.006;9.292;2024-01-06T06:45:42;97892.97;;;3.40;100.00
50933;BME280;36921;49.006;9.292;2024-01-06T06:48:07;97894.47;;;3.43;100.00
50933;BME280;36921;49.006;9.292;2024-01-06T06:50:32;97906.03;;;3.43;100.00
50933;BME280;36921;49.006;9.292;2024-01-06T06:52:59;97911.16;;;3.45;100.00
50933;BME280;36921;49.006;9.292;2024-01-06T06:55:24;97918.91;;;3.40;100.00
50933;BME280;36921;49.006;9.292;2024-01-06T06:57:50;97918.91;;;3.40;100.00
50933;BME280;36921;49.006;9.292;2024-01-06T07:00:15;97911.81;;;3.47;100.00
50933;BME280;36921;49.006;9.292;2024-01-06T07:02:42;97923.81;;;3.51;100.00
50933;BME280;36921;49.006;9.292;2024-01-06T07:05:08;97927.28;;;3.60;100.00
50933;BME280;36921;49.006;9.292;2024-01-06T07:07:33;97936.13;;;3.60;100.00
50933;BME280;36921;49.006;9.292;2024-01-06T07:10:07;97933.59;;;3.59;100.00
50933;BME280;36921;49.006;9.292;2024-01-06T07:12:32;97932.78;;;3.58;100.00
50933;BME280;36921;49.006;9.292;2024-01-06T07:14:58;97932.78;;;3.58;100.00
50933;BME280;36921;49.006;9.292;2024-01-06T07:17:26;97933.44;;;3.60;100.00
50933;BME280;36921;49.006;9.292;2024-01-06T07:19:52;97932.25;;;3.63;100.00
50933;BME280;36921;49.006;9.292;2024-01-06T07:22:18;97933.44;;;3.60;100.00
50933;BME280;36921;49.006;9.292;2024-01-06T07:24:44;97931.59;;;3.61;100.00
50933;BME280;36921;49.006;9.292;2024-01-06T07:27:10;97937.13;;;3.59;100.00
50933;BME280;36921;49.006;9.292;2024-01-06T07:29:37;97942.50;;;3.59;100.00
50933;BME280;36921;49.006;9.292;2024-01-06T07:32:04;97950.50;;;3.59;100.00
50933;BME280;36921;49.006;9.292;2024-01-06T07:34:31;97951.13;;;3.61;100.00
50933;BME280;36921;49.006;9.292;2024-01-06T07:36:57;97954.09;;;3.66;100.00
50933;BME280;36921;49.006;9.292;2024-01-06T07:39:23;97956.44;;;3.69;100.00
50933;BME280;36921;49.006;9.292;2024-01-06T07:41:49;97957.28;;;3.70;100.00
50933;BME280;36921;49.006;9.292;2024-01-06T07:44:15;97956.53;;;3.76;100.00
50933;BME280;36921;49.006;9.292;2024-01-06T07:46:41;97954.31;;;3.80;100.00
50933;BME280;36921;49.006;9.292;2024-01-06T07:49:09;97952.78;;;3.85;100.00
50933;BME280;36921;49.006;9.292;2024-01-06T07:51:34;97955.38;;;3.93;100.00
50933;BME280;36921;49.006;9.292;2024-01-06T07:54:02;97958.53;;;3.97;100.00
50933;BME280;36921;49.006;9.292;2024-01-06T07:56:28;97968.31;;;4.05;100.00
50933;BME280;36921;49.006;9.292;2024-01-06T07:58:53;97946.06;;;4.04;100.00
50933;BME280;36921;49.006;9.292;2024-01-06T08:01:18;97965.00;;;4.17;100.00
50933;BME280;36921;49.006;9.292;2024-01-06T08:03:44;97961.41;;;4.25;100.00
50933;BME280;36921;49.006;9.292;2024-01-06T08:06:10;97952.34;;;4.26;100.00
50933;BME280;36921;49.006;9.292;2024-01-06T08:08:35;97953.19;;;4.27;100.00
50933;BME280;36921;49.006;9.292;2024-01-06T08:11:01;97966.56;;;4.27;100.00
50933;BME280;36921;49.006;9.292;2024-01-06T08:13:26;97965.09;;;4.24;100.00
50933;BME280;36921;49.006;9.292;2024-01-06T08:15:52;97968.34;;;4.20;100.00
50933;BME280;36921;49.006;9.292;2024-01-06T08:18:17;97957.72;;;4.11;100.00
50933;BME280;36921;49.006;9.292;2024-01-06T08:20:43;97961.97;;;4.21;100.00
50933;BME280;36921;49.006;9.292;2024-01-06T08:23:09;97955.59;;;4.22;100.00
50933;BME280;36921;49.006;9.292;2024-01-06T08:25:35;97962.06;;;4.27;100.00
50933;BME280;36921;49.006;9.292;2024-01-06T08:28:01;97973.06;;;4.32;100.00
50933;BME280;36921;49.006;9.292;2024-01-06T08:30:26;97971.88;;;4.35;100.00
50933;BME280;36921;49.006;9.292;2024-01-06T08:32:52;97979.69;;;4.36;100.00
50933;BME280;36921;49.006;9.292;2024-01-06T08:35:17;97976.38;;;4.34;100.00
50933;BME280;36921;49.006;9.292;2024-01-06T08:37:45;97993.09;;;4.36;100.00
50933;BME280;36921;49.006;9.292;2024-01-06T08:40:10;97985.81;;;4.30;100.00
50933;BME280;36921;49.006;9.292;2024-01-06T08:42:36;97995.94;;;4.50;100.00
50933;BME280;36921;49.006;9.292;2024-01-06T08:45:01;97984.88;;;4.53;100.00
50933;BME280;36921;49.006;9.292;2024-01-06T08:47:29;97988.09;;;4.63;100.00
50933;BME280;36921;49.006;9.292;2024-01-06T08:49:55;97978.75;;;4.74;100.00
50933;BME280;36921;49.006;9.292;2024-01-06T08:52:20;97977.81;;;4.81;100.00
50933;BME280;36921;49.006;9.292;2024-01-06T08:54:45;97987.72;;;4.81;100.00
50933;BME280;36921;49.006;9.292;2024-01-06T08:57:11;97983.56;;;4.78;100.00
50933;BME280;36921;49.006;9.292;2024-01-06T08:59:36;97993.63;;;4.91;100.00
50933;BME280;36921;49.006;9.292;2024-01-06T09:02:02;97985.69;;;4.98;100.00
50933;BME280;36921;49.006;9.292;2024-01-06T09:04:27;97985.09;;;5.02;100.00
50933;BME280;36921;49.006;9.292;2024-01-06T09:06:53;97999.25;;;5.11;100.00
50933;BME280;36921;49.006;9.292;2024-01-06T09:09:18;97998.31;;;5.19;100.00
50933;BME280;36921;49.006;9.292;2024-01-06T09:11:44;97996.19;;;5.36;100.00
50933;BME280;36921;49.006;9.292;2024-01-06T09:14:09;97998.75;;;5.44;100.00
50933;BME280;36921;49.006;9.292;2024-01-06T09:16:36;97982.09;;;5.48;100.00
50933;BME280;36921;49.006;9.292;2024-01-06T09:19:02;97995.47;;;5.63;100.00
50933;BME280;36921;49.006;9.292;2024-01-06T09:21:27;97987.84;;;5.88;100.00
50933;BME280;36921;49.006;9.292;2024-01-06T09:23:53;97999.91;;;5.78;100.00
50933;BME280;36921;49.006;9.292;2024-01-06T09:26:19;97997.94;;;5.86;100.00
50933;BME280;36921;49.006;9.292;2024-01-06T09:28:45;98007.31;;;5.76;100.00
50933;BME280;36921;49.006;9.292;2024-01-06T09:31:11;98004.91;;;5.81;100.00
50933;BME280;36921;49.006;9.292;2024-01-06T09:33:37;98004.09;;;6.02;100.00
50933;BME280;36921;49.006;9.292;2024-01-06T09:36:02;98001.75;;;6.20;100.00
50933;BME280;36921;49.006;9.292;2024-01-06T09:38:28;98002.00;;;6.25;100.00
50933;BME280;36921;49.006;9.292;2024-01-06T09:40:55;98006.03;;;6.14;100.00
50933;BME280;36921;49.006;9.292;2024-01-06T09:43:20;98016.84;;;6.21;100.00
50933;BME280;36921;49.006;9.292;2024-01-06T09:45:54;98016.41;;;6.18;100.00
50933;BME280;36921;49.006;9.292;2024-01-06T09:48:22;98017.66;;;5.93;100.00
50933;BME280;36921;49.006;9.292;2024-01-06T09:50:56;98021.66;;;5.83;100.00
50933;BME280;36921;49.006;9.292;2024-01-06T09:53:23;98032.38;;;5.61;100.00
50933;BME280;36921;49.006;9.292;2024-01-06T09:55:55;98032.69;;;5.52;100.00
50933;BME280;36921;49.006;9.292;2024-01-06T09:58:20;98042.78;;;5.49;100.00
50933;BME280;36921;49.006;9.292;2024-01-06T10:00:48;98048.53;;;5.46;100.00
50933;BME280;36921;49.006;9.292;2024-01-06T10:03:14;98038.13;;;5.58;100.00
50933;BME280;36921;49.006;9.292;2024-01-06T10:05:40;98053.31;;;5.51;100.00
50933;BME280;36921;49.006;9.292;2024-01-06T10:08:06;98048.63;;;5.38;100.00
50933;BME280;36921;49.006;9.292;2024-01-06T10:10:33;98047.28;;;5.27;100.00
50933;BME280;36921;49.006;9.292;2024-01-06T10:12:59;98041.72;;;5.29;100.00
50933;BME280;36921;49.006;9.292;2024-01-06T10:15:25;98050.22;;;5.33;100.00
50933;BME280;36921;49.006;9.292;2024-01-06T10:17:50;98046.84;;;5.24;100.00
50933;BME280;36921;49.006;9.292;2024-01-06T10:20:19;98045.25;;;5.15;100.00
50933;BME280;36921;49.006;9.292;2024-01-06T10:22:45;98049.41;;;5.32;100.00
50933;BME280;36921;49.006;9.292;2024-01-06T10:25:11;98046.84;;;5.24;100.00
50933;BME280;36921;49.006;9.292;2024-01-06T10:27:41;98051.84;;;5.12;100.00
50933;BME280;36921;49.006;9.292;2024-01-06T10:30:07;98047.56;;;5.18;100.00
50933;BME280;36921;49.006;9.292;2024-01-06T10:32:34;98049.75;;;5.29;100.00
50933;BME280;36921;49.006;9.292;2024-01-06T10:35:00;98044.47;;;5.36;100.00
50933;BME280;36921;49.006;9.292;2024-01-06T10:37:26;98040.84;;;5.43;100.00
50933;BME280;36921;49.006;9.292;2024-01-06T10:40:12;98046.75;;;5.54;100.00
50933;BME280;36921;49.006;9.292;2024-01-06T10:42:39;98045.06;;;5.53;100.00
50933;BME280;36921;49.006;9.292;2024-01-06T10:45:09;98043.56;;;5.65;100.00
50933;BME280;36921;49.006;9.292;2024-01-06T10:47:40;98047.06;;;5.65;100.00
50933;BME280;36921;49.006;9.292;2024-01-06T10:50:06;98049.38;;;5.68;100.00
50933;BME280;36921;49.006;9.292;2024-01-06T10:52:33;98041.53;;;5.67;100.00
50933;BME280;36921;49.006;9.292;2024-01-06T10:55:01;98049.56;;;5.67;100.00
50933;BME280;36921;49.006;9.292;2024-01-06T10:57:27;98041.66;;;5.80;100.00
50933;BME280;36921;49.006;9.292;2024-01-06T10:59:54;98043.69;;;5.78;100.00
50933;BME280;36921;49.006;9.292;2024-01-06T11:02:23;98041.34;;;5.90;100.00
50933;BME280;36921;49.006;9.292;2024-01-06T11:04:50;98034.59;;;5.94;100.00
50933;BME280;36921;49.006;9.292;2024-01-06T11:07:18;98027.09;;;6.11;100.00
50933;BME280;36921;49.006;9.292;2024-01-06T11:09:57;98031.69;;;6.17;100.00
50933;BME280;36921;49.006;9.292;2024-01-06T11:12:24;98028.19;;;6.17;100.00
50933;BME280;36921;49.006;9.292;2024-01-06T11:14:51;98024.84;;;6.14;100.00
50933;BME280;36921;49.006;9.292;2024-01-06T11:20:19;98029.25;;;6.22;100.00
50933;BME280;36921;49.006;9.292;2024-01-06T11:22:45;98026.41;;;6.30;100.00
50933;BME280;36921;49.006;9.292;2024-01-06T11:25:18;98016.16;;;6.41;100.00
50933;BME280;36921;49.006;9.292;2024-01-06T11:27:46;98018.91;;;6.47;100.00
50933;BME280;36921;49.006;9.292;2024-01-06T11:32:46;98013.41;;;6.62;100.00
50933;BME280;36921;49.006;9.292;2024-01-06T11:35:14;98014.47;;;6.68;100.00
50933;BME280;36921;49.006;9.292;2024-01-06T11:43:08;98013.56;;;6.54;100.00
50933;BME280;36921;49.006;9.292;2024-01-06T11:45:35;98007.63;;;6.65;100.00
50933;BME280;36921;49.006;9.292;2024-01-06T11:48:02;98001.63;;;6.63;100.00
50933;BME280;36921;49.006;9.292;2024-01-06T11:50:33;98004.91;;;6.58;100.00
50933;BME280;36921;49.006;9.292;2024-01-06T11:52:59;98003.34;;;6.71;100.00
50933;BME280;36921;49.006;9.292;2024-01-06T11:55:26;98006.41;;;6.68;100.00
50933;BME280;36921;49.006;9.292;2024-01-06T11:57:57;97996.75;;;6.73;100.00
50933;BME280;36921;49.006;9.292;2024-01-06T12:00:23;98001.88;;;6.68;100.00
50933;BME280;36921;49.006;9.292;2024-01-06T12:02:48;98000.78;;;6.63;100.00
50933;BME280;36921;49.006;9.292;2024-01-06T12:05:15;97986.03;;;6.52;100.00
50933;BME280;36921;49.006;9.292;2024-01-06T12:07:44;97984.41;;;6.51;100.00
50933;BME280;36921;49.006;9.292;2024-01-06T12:10:20;97992.22;;;6.46;100.00
50933;BME280;36921;49.006;9.292;2024-01-06T12:12:55;97988.88;;;6.37;100.00
50933;BME280;36921;49.006;9.292;2024-01-06T12:15:20;97984.50;;;6.36;100.00
50933;BME280;36921;49.006;9.292;2024-01-06T12:17:46;97988.41;;;6.33;100.00
50933;BME280;36921;49.006;9.292;2024-01-06T12:20:11;97974.78;;;6.35;100.00
50933;BME280;36921;49.006;9.292;2024-01-06T12:22:37;97993.63;;;6.42;100.00
50933;BME280;36921;49.006;9.292;2024-01-06T12:25:02;97983.13;;;6.47;100.00
50933;BME280;36921;49.006;9.292;2024-01-06T12:27:30;97987.00;;;6.38;100.00
50933;BME280;36921;49.006;9.292;2024-01-06T12:29:56;97987.09;;;6.51;100.00
50933;BME280;36921;49.006;9.292;2024-01-06T12:32:21;97986.94;;;6.59;100.00
50933;BME280;36921;49.006;9.292;2024-01-06T12:34:47;97985.59;;;6.76;100.00
50933;BME280;36921;49.006;9.292;2024-01-06T12:37:13;97980.44;;;6.82;100.00
50933;BME280;36921;49.006;9.292;2024-01-06T12:39:40;97992.25;;;6.94;100.00
50933;BME280;36921;49.006;9.292;2024-01-06T12:42:07;97980.31;;;7.03;100.00
50933;BME280;36921;49.006;9.292;2024-01-06T12:44:34;97980.56;;;7.15;100.00
50933;BME280;36921;49.006;9.292;2024-01-06T12:47:02;97978.13;;;7.27;100.00
50933;BME280;36921;49.006;9.292;2024-01-06T12:49:28;97975.22;;;7.28;100.00
50933;BME280;36921;49.006;9.292;2024-01-06T12:51:54;97975.75;;;7.03;100.00
50933;BME280;36921;49.006;9.292;2024-01-06T12:54:19;97975.94;;;7.02;100.00
50933;BME280;36921;49.006;9.292;2024-01-06T12:56:45;97976.53;;;6.91;100.00
50933;BME280;36921;49.006;9.292;2024-01-06T12:59:10;97971.75;;;6.86;100.00
50933;BME280;36921;49.006;9.292;2024-01-06T13:01:36;97966.75;;;6.76;100.00
50933;BME280;36921;49.006;9.292;2024-01-06T13:04:02;97965.91;;;6.69;100.00
50933;BME280;36921;49.006;9.292;2024-01-06T13:06:27;97975.13;;;6.60;100.00